createdAt,value
2023-03-18T00:00:47.892Z,9.71
2023-03-18T00:01:50.098Z,9.76
2023-03-18T00:02:52.649Z,9.70
2023-03-18T00:03:55.234Z,9.69
2023-03-18T00:04:57.543Z,9.78
2023-03-18T00:06:08.579Z,9.72
2023-03-18T00:07:12.033Z,9.56
2023-03-18T00:08:14.480Z,9.56
2023-03-18T00:09:17.615Z,9.51
2023-03-18T00:10:20.394Z,9.55
2023-03-18T00:11:22.781Z,9.49
2023-03-18T00:12:25.286Z,9.47
2023-03-18T00:13:27.839Z,9.56
2023-03-18T00:14:30.123Z,9.62
2023-03-18T00:15:32.476Z,9.65
2023-03-18T00:16:37.776Z,9.63
2023-03-18T00:17:41.231Z,9.65
2023-03-18T00:18:43.808Z,9.66
2023-03-18T00:19:46.165Z,9.70
2023-03-18T00:20:48.433Z,9.77
2023-03-18T00:21:50.975Z,9.38
2023-03-18T00:22:53.256Z,9.32
2023-03-18T00:23:56.914Z,9.12
2023-03-18T00:24:59.347Z,8.97
2023-03-18T00:26:02.976Z,9.01
2023-03-18T00:27:05.245Z,9.15
2023-03-18T00:28:07.971Z,9.25
2023-03-18T00:29:10.692Z,9.17
2023-03-18T00:30:13.835Z,9.02
2023-03-18T00:31:16.277Z,8.84
2023-03-18T00:32:18.589Z,8.89
2023-03-18T00:33:21.058Z,8.90
2023-03-18T00:34:23.321Z,8.94
2023-03-18T00:35:28.043Z,8.95
2023-03-18T00:36:30.907Z,8.91
2023-03-18T00:37:35.650Z,8.99
2023-03-18T00:38:42.129Z,9.09
2023-03-18T00:39:46.084Z,9.14
2023-03-18T00:41:11.259Z,9.16
2023-03-18T00:42:14.714Z,9.02
2023-03-18T00:43:16.888Z,8.94
2023-03-18T00:44:19.359Z,8.87
2023-03-18T00:45:21.844Z,8.92
2023-03-18T00:46:35.343Z,9.13
2023-03-18T00:47:38.467Z,9.18
2023-03-18T00:48:41.041Z,9.31
2023-03-18T00:49:43.368Z,9.26
2023-03-18T00:50:45.786Z,9.05
2023-03-18T00:51:48.104Z,9.08
2023-03-18T00:52:50.382Z,9.19
2023-03-18T00:53:55.462Z,9.25
2023-03-18T00:54:57.773Z,9.26
2023-03-18T00:56:00.438Z,9.31
2023-03-18T00:57:02.875Z,9.36
2023-03-18T00:58:05.171Z,9.44
2023-03-18T00:59:08.673Z,9.41
2023-03-18T01:00:11.701Z,9.40
2023-03-18T01:01:15.446Z,9.40
2023-03-18T01:02:17.855Z,9.53
2023-03-18T01:03:20.364Z,9.55
2023-03-18T01:04:22.775Z,9.52
2023-03-18T01:05:25.042Z,9.49
2023-03-18T01:06:31.420Z,9.49
2023-03-18T01:07:33.738Z,9.54
2023-03-18T01:08:36.496Z,9.57
2023-03-18T01:09:43.511Z,9.56
2023-03-18T01:10:45.765Z,9.32
2023-03-18T01:11:48.031Z,9.38
2023-03-18T01:12:51.009Z,9.44
2023-03-18T01:13:53.886Z,9.43
2023-03-18T01:14:56.424Z,9.19
2023-03-18T01:15:58.848Z,9.09
2023-03-18T01:17:02.136Z,9.14
2023-03-18T01:18:04.446Z,9.21
2023-03-18T01:19:07.044Z,9.21
2023-03-18T01:20:11.492Z,9.19
2023-03-18T01:21:15.232Z,9.19
2023-03-18T01:22:24.337Z,9.10
2023-03-18T01:23:27.888Z,8.89
2023-03-18T01:24:30.515Z,8.99
2023-03-18T01:25:33.682Z,9.04
2023-03-18T01:26:36.788Z,9.16
2023-03-18T01:27:39.415Z,9.02
2023-03-18T01:28:43.054Z,8.97
2023-03-18T01:29:46.510Z,9.02
2023-03-18T01:30:55.433Z,8.78
2023-03-18T01:31:57.949Z,8.90
2023-03-18T01:33:00.811Z,8.93
2023-03-18T01:34:04.741Z,8.90
2023-03-18T01:35:17.866Z,8.95
2023-03-18T01:36:22.624Z,9.00
2023-03-18T01:37:38.128Z,9.04
2023-03-18T01:38:48.202Z,9.06
2023-03-18T01:39:51.159Z,9.06
2023-03-18T01:40:59.662Z,9.11
2023-03-18T01:42:02.249Z,9.13
2023-03-18T01:43:19.568Z,9.17
2023-03-18T01:44:24.721Z,9.17
2023-03-18T01:45:30.671Z,9.17
2023-03-18T01:46:58.530Z,9.24
2023-03-18T01:48:01.194Z,9.21
2023-03-18T01:49:10.631Z,9.27
2023-03-18T01:50:15.728Z,9.31
2023-03-18T01:51:19.788Z,9.29
2023-03-18T01:52:27.025Z,9.31
2023-03-18T01:53:39.085Z,9.35
2023-03-18T01:55:00.537Z,9.28
2023-03-18T01:56:04.099Z,9.29
2023-03-18T01:57:07.589Z,9.25
2023-03-18T01:58:18.514Z,9.20
2023-03-18T01:59:24.956Z,9.17
2023-03-18T02:00:28.468Z,9.13
2023-03-18T02:01:53.693Z,8.93
2023-03-18T02:02:58.324Z,8.91
2023-03-18T02:04:04.345Z,8.82
2023-03-18T02:05:11.188Z,8.85
2023-03-18T02:06:14.014Z,8.82
2023-03-18T02:07:21.164Z,8.86
2023-03-18T02:08:23.459Z,8.67
2023-03-18T02:09:25.936Z,8.62
2023-03-18T02:10:31.984Z,8.59
2023-03-18T02:11:39.456Z,8.42
2023-03-18T02:12:45.558Z,8.36
2023-03-18T02:13:52.576Z,8.35
2023-03-18T02:14:55.983Z,8.38
2023-03-18T02:16:05.485Z,8.50
2023-03-18T02:17:15.284Z,8.43
2023-03-18T02:18:24.739Z,8.50
2023-03-18T02:20:03.249Z,8.56
2023-03-18T02:21:14.088Z,8.62
2023-03-18T02:22:24.908Z,8.62
2023-03-18T02:23:35.019Z,8.48
2023-03-18T02:25:02.444Z,8.52
2023-03-18T02:26:07.181Z,8.59
2023-03-18T02:27:18.977Z,8.59
2023-03-18T02:28:28.200Z,8.65
2023-03-18T02:29:36.779Z,8.67
2023-03-18T02:30:48.651Z,8.71
2023-03-18T02:31:53.378Z,8.67
2023-03-18T02:32:59.262Z,8.63
2023-03-18T02:34:02.008Z,8.59
2023-03-18T02:35:08.623Z,8.58
2023-03-18T02:36:23.937Z,8.61
2023-03-18T02:37:28.024Z,8.58
2023-03-18T02:38:30.444Z,8.62
2023-03-18T02:39:32.947Z,8.55
2023-03-18T02:40:39.653Z,8.61
2023-03-18T02:41:48.389Z,8.58
2023-03-18T02:42:51.395Z,8.54
2023-03-18T02:43:54.303Z,8.57
2023-03-18T02:44:59.821Z,8.56
2023-03-18T02:46:38.535Z,8.63
2023-03-18T02:47:44.918Z,8.52
2023-03-18T02:48:48.895Z,8.31
2023-03-18T02:49:51.589Z,8.23
2023-03-18T02:50:56.163Z,8.24
2023-03-18T02:51:58.810Z,8.22
2023-03-18T02:53:04.236Z,8.29
2023-03-18T02:54:12.881Z,8.27
2023-03-18T02:55:15.559Z,8.23
2023-03-18T02:56:18.431Z,8.27
2023-03-18T02:57:20.664Z,8.32
2023-03-18T02:58:23.227Z,8.33
2023-03-18T02:59:32.291Z,8.28
2023-03-18T03:02:08.974Z,8.13
2023-03-18T03:03:11.688Z,8.18
2023-03-18T03:04:15.559Z,8.22
2023-03-18T03:05:17.782Z,8.15
2023-03-18T03:06:20.062Z,8.16
2023-03-18T03:07:27.778Z,8.06
2023-03-18T03:08:30.773Z,8.14
2023-03-18T03:09:33.405Z,8.11
2023-03-18T03:10:36.455Z,8.06
2023-03-18T03:11:39.134Z,8.10
2023-03-18T03:12:48.260Z,8.11
2023-03-18T03:13:53.435Z,8.04
2023-03-18T03:14:56.595Z,7.93
2023-03-18T03:16:00.385Z,7.92
2023-03-18T03:17:02.954Z,7.86
2023-03-18T03:18:05.691Z,7.93
2023-03-18T03:19:08.263Z,7.96
2023-03-18T03:20:12.597Z,7.99
2023-03-18T03:21:15.128Z,7.98
2023-03-18T03:22:18.450Z,7.96
2023-03-18T03:23:22.056Z,7.77
2023-03-18T03:24:24.210Z,7.67
2023-03-18T03:25:27.419Z,7.65
2023-03-18T03:26:30.867Z,7.74
2023-03-18T03:27:33.096Z,7.64
2023-03-18T03:28:36.285Z,7.45
2023-03-18T03:29:38.993Z,7.29
2023-03-18T03:30:42.226Z,7.38
2023-03-18T03:31:45.199Z,7.30
2023-03-18T03:32:47.690Z,7.33
2023-03-18T03:33:49.965Z,7.26
2023-03-18T03:34:52.152Z,7.19
2023-03-18T03:35:55.121Z,7.10
2023-03-18T03:36:57.412Z,7.18
2023-03-18T03:38:01.961Z,7.29
2023-03-18T03:39:04.276Z,7.25
2023-03-18T03:40:15.905Z,7.30
2023-03-18T03:41:18.982Z,7.36
2023-03-18T03:42:24.370Z,7.44
2023-03-18T03:43:26.601Z,7.51
2023-03-18T03:44:29.297Z,7.55
2023-03-18T03:45:32.919Z,7.48
2023-03-18T03:46:35.934Z,7.42
2023-03-18T03:47:38.408Z,7.36
2023-03-18T03:48:40.650Z,7.34
2023-03-18T03:49:47.723Z,7.38
2023-03-18T03:50:51.573Z,7.38
2023-03-18T03:52:00.803Z,7.42
2023-03-18T03:53:04.870Z,7.45
2023-03-18T03:54:07.178Z,7.43
2023-03-18T03:55:13.094Z,7.52
2023-03-18T03:56:15.682Z,7.57
2023-03-18T03:57:18.784Z,7.58
2023-03-18T03:58:21.756Z,7.64
2023-03-18T03:59:24.811Z,7.65
2023-03-18T04:00:39.799Z,7.65
2023-03-18T04:01:42.122Z,7.61
2023-03-18T04:02:45.455Z,7.54
2023-03-18T04:03:49.600Z,7.53
2023-03-18T04:04:53.616Z,7.60
2023-03-18T04:06:01.630Z,7.56
2023-03-18T04:07:06.450Z,7.56
2023-03-18T04:08:08.765Z,7.54
2023-03-18T04:09:12.847Z,7.53
2023-03-18T04:10:17.443Z,7.57
2023-03-18T04:11:20.340Z,7.58
2023-03-18T04:12:22.819Z,7.53
2023-03-18T04:13:31.538Z,7.56
2023-03-18T04:14:33.807Z,7.60
2023-03-18T04:15:36.138Z,7.48
2023-03-18T04:16:44.717Z,7.45
2023-03-18T04:17:47.339Z,7.38
2023-03-18T04:18:52.668Z,7.22
2023-03-18T04:19:58.574Z,7.03
2023-03-18T04:21:05.902Z,6.99
2023-03-18T04:22:29.621Z,7.00
2023-03-18T04:23:35.720Z,7.03
2023-03-18T04:24:38.592Z,7.09
2023-03-18T04:25:42.824Z,7.19
2023-03-18T04:26:45.066Z,7.27
2023-03-18T04:27:47.363Z,7.27
2023-03-18T04:28:52.112Z,7.29
2023-03-18T04:29:54.751Z,7.37
2023-03-18T04:30:58.731Z,7.35
2023-03-18T04:32:01.494Z,7.38
2023-03-18T04:33:04.238Z,7.39
2023-03-18T04:34:08.027Z,7.39
2023-03-18T04:35:11.203Z,7.46
2023-03-18T04:36:13.820Z,7.41
2023-03-18T04:37:19.794Z,7.42
2023-03-18T04:38:24.467Z,7.39
2023-03-18T04:39:28.034Z,7.37
2023-03-18T04:40:31.150Z,7.37
2023-03-18T04:41:33.588Z,7.36
2023-03-18T04:42:39.570Z,7.21
2023-03-18T04:43:44.650Z,7.07
2023-03-18T04:44:47.089Z,6.98
2023-03-18T04:45:51.781Z,6.91
2023-03-18T04:46:54.688Z,6.90
2023-03-18T04:47:58.346Z,6.90
2023-03-18T04:49:02.079Z,6.87
2023-03-18T04:50:05.314Z,6.93
2023-03-18T04:51:09.197Z,6.99
2023-03-18T04:52:12.528Z,7.04
2023-03-18T04:53:16.615Z,7.09
2023-03-18T04:54:19.856Z,7.09
2023-03-18T04:55:22.732Z,7.15
2023-03-18T04:56:25.822Z,7.12
2023-03-18T04:57:29.584Z,7.11
2023-03-18T04:58:31.954Z,7.09
2023-03-18T04:59:43.941Z,7.05
2023-03-18T05:00:46.442Z,6.97
2023-03-18T05:01:56.955Z,6.91
2023-03-18T05:02:59.179Z,6.86
2023-03-18T05:04:02.744Z,6.81
2023-03-18T05:05:14.415Z,6.79
2023-03-18T05:06:27.256Z,6.64
2023-03-18T05:07:33.399Z,6.59
2023-03-18T05:08:43.269Z,6.59
2023-03-18T05:09:47.343Z,6.61
2023-03-18T05:10:50.665Z,6.41
2023-03-18T05:11:53.935Z,6.48
2023-03-18T05:13:07.045Z,6.34
2023-03-18T05:14:11.824Z,6.39
2023-03-18T05:15:19.400Z,6.40
2023-03-18T05:16:27.745Z,6.38
2023-03-18T05:17:30.069Z,6.37
2023-03-18T05:18:37.790Z,6.13
2023-03-18T05:19:43.966Z,5.99
2023-03-18T05:20:56.245Z,5.93
2023-03-18T05:22:00.142Z,6.05
2023-03-18T05:23:03.018Z,6.10
2023-03-18T05:24:19.730Z,6.20
2023-03-18T05:25:22.383Z,6.26
2023-03-18T05:26:24.750Z,6.31
2023-03-18T05:27:28.374Z,6.23
2023-03-18T05:28:36.036Z,6.19
2023-03-18T05:30:15.432Z,6.24
2023-03-18T05:31:21.782Z,6.29
2023-03-18T05:32:24.599Z,6.36
2023-03-18T05:33:33.318Z,6.33
2023-03-18T05:34:38.967Z,6.22
2023-03-18T05:35:42.595Z,6.07
2023-03-18T05:36:45.383Z,5.94
2023-03-18T05:37:48.031Z,5.99
2023-03-18T05:38:50.932Z,5.98
2023-03-18T05:39:53.943Z,5.95
2023-03-18T05:40:56.202Z,5.96
2023-03-18T05:42:06.520Z,5.92
2023-03-18T05:43:09.378Z,5.90
2023-03-18T05:44:17.596Z,5.96
2023-03-18T05:45:19.825Z,6.06
2023-03-18T05:46:46.839Z,6.18
2023-03-18T05:48:14.289Z,6.27
2023-03-18T05:49:43.032Z,6.33
2023-03-18T05:50:53.342Z,6.41
2023-03-18T05:52:01.258Z,6.53
2023-03-18T05:53:13.306Z,6.48
2023-03-18T05:54:17.951Z,6.22
2023-03-18T05:55:20.757Z,6.15
2023-03-18T05:56:24.612Z,6.10
2023-03-18T05:57:30.603Z,6.07
2023-03-18T06:14:29.162Z,6.88
2023-03-18T06:15:37.633Z,6.96
2023-03-18T06:16:41.713Z,7.09
2023-03-18T06:17:44.362Z,7.12
2023-03-18T06:18:47.993Z,7.26
2023-03-18T06:19:51.568Z,7.38
2023-03-18T06:20:54.536Z,7.54
2023-03-18T06:21:57.132Z,7.71
2023-03-18T06:22:59.850Z,7.78
2023-03-18T06:24:03.094Z,7.56
2023-03-18T06:40:23.862Z,9.15
2023-03-18T06:41:26.337Z,9.29
2023-03-18T06:42:39.289Z,9.53
2023-03-18T06:43:50.580Z,9.55
2023-03-18T06:44:53.212Z,9.49
2023-03-18T06:46:01.169Z,9.62
2023-03-18T06:47:03.517Z,9.64
2023-03-18T06:48:10.363Z,9.48
2023-03-18T06:49:16.446Z,9.50
2023-03-18T06:50:25.357Z,9.57
2023-03-18T06:51:28.018Z,9.59
2023-03-18T06:52:30.515Z,9.65
2023-03-18T06:53:38.585Z,9.82
2023-03-18T06:54:41.629Z,9.98
2023-03-18T06:55:44.871Z,10.02
2023-03-18T06:56:47.414Z,10.09
2023-03-18T06:57:53.505Z,10.09
2023-03-18T06:59:00.715Z,10.13
2023-03-18T07:00:05.103Z,10.24
2023-03-18T07:01:08.316Z,10.29
2023-03-18T07:02:16.454Z,10.44
2023-03-18T07:03:19.072Z,10.64
2023-03-18T07:04:23.712Z,10.68
2023-03-18T07:05:26.916Z,10.64
2023-03-18T07:06:30.562Z,10.59
2023-03-18T07:07:33.193Z,10.75
2023-03-18T07:08:35.840Z,10.84
2023-03-18T07:09:38.377Z,10.92
2023-03-18T07:10:42.322Z,10.93
2023-03-18T07:11:48.164Z,10.89
2023-03-18T07:12:55.928Z,10.93
2023-03-18T07:13:58.183Z,11.06
2023-03-18T07:15:04.832Z,11.09
2023-03-18T07:16:07.259Z,11.32
2023-03-18T07:17:10.685Z,11.50
2023-03-18T07:18:14.101Z,11.59
2023-03-18T07:19:17.742Z,11.87
2023-03-18T07:20:22.280Z,12.04
2023-03-18T07:21:25.412Z,11.88
2023-03-18T07:22:27.589Z,11.99
2023-03-18T07:23:29.835Z,12.08
2023-03-18T07:24:32.923Z,12.11
2023-03-18T07:25:36.647Z,12.14
2023-03-18T07:26:38.906Z,11.95
2023-03-18T07:27:45.941Z,11.93
2023-03-18T07:28:48.191Z,12.02
2023-03-18T07:29:50.624Z,11.96
2023-03-18T07:30:54.292Z,12.03
2023-03-18T07:31:57.288Z,12.06
2023-03-18T07:32:59.946Z,12.05
2023-03-18T07:34:02.640Z,11.92
2023-03-18T07:35:07.017Z,11.98
2023-03-18T07:36:09.617Z,12.05
2023-03-18T07:37:11.975Z,12.11
2023-03-18T07:38:14.331Z,12.03
2023-03-18T07:39:17.039Z,12.11
2023-03-18T07:40:19.246Z,12.19
2023-03-18T07:41:21.766Z,12.15
2023-03-18T07:42:24.023Z,12.13
2023-03-18T07:43:26.509Z,12.24
2023-03-18T07:44:29.349Z,12.26
2023-03-18T07:45:31.792Z,12.24
2023-03-18T07:46:34.267Z,12.03
2023-03-18T07:47:37.146Z,12.32
2023-03-18T07:48:39.435Z,12.70
2023-03-18T07:49:41.686Z,13.03
2023-03-18T07:50:43.941Z,12.78
2023-03-18T07:51:46.290Z,12.70
2023-03-18T07:52:48.647Z,12.82
2023-03-18T07:53:51.794Z,12.97
2023-03-18T07:54:54.092Z,12.85
2023-03-18T07:55:56.413Z,13.00
2023-03-18T07:56:58.910Z,12.82
2023-03-18T07:58:01.290Z,12.83
2023-03-18T07:59:03.578Z,12.95
2023-03-18T08:00:08.065Z,13.01
2023-03-18T08:01:18.353Z,13.14
2023-03-18T08:02:21.689Z,13.17
2023-03-18T08:03:24.002Z,13.21
2023-03-18T08:04:26.494Z,13.32
2023-03-18T08:05:28.781Z,13.26
2023-03-18T08:06:31.467Z,13.28
2023-03-18T08:07:34.727Z,13.04
2023-03-18T08:08:37.986Z,12.94
2023-03-18T08:09:40.404Z,12.98
2023-03-18T08:10:42.870Z,13.01
2023-03-18T08:11:45.173Z,12.89
2023-03-18T08:12:53.263Z,12.82
2023-03-18T08:13:56.489Z,12.82
2023-03-18T08:14:59.870Z,12.75
2023-03-18T08:16:02.502Z,12.83
2023-03-18T08:17:04.813Z,12.98
2023-03-18T08:18:09.369Z,13.16
2023-03-18T08:19:12.017Z,13.27
2023-03-18T08:20:15.263Z,13.51
2023-03-18T08:21:17.730Z,13.46
2023-03-18T08:22:19.922Z,13.59
2023-03-18T08:23:23.533Z,13.36
2023-03-18T08:24:26.622Z,13.40
2023-03-18T08:25:28.899Z,13.64
2023-03-18T08:26:31.128Z,13.97
2023-03-18T08:27:33.338Z,13.90
2023-03-18T08:28:35.575Z,13.98
2023-03-18T08:29:37.788Z,13.53
2023-03-18T08:30:40.070Z,13.61
2023-03-18T08:31:42.980Z,13.57
2023-03-18T08:32:46.183Z,13.48
2023-03-18T08:33:49.882Z,13.49
2023-03-18T08:34:52.378Z,13.43
2023-03-18T08:35:56.312Z,13.48
2023-03-18T08:36:59.139Z,13.47
2023-03-18T08:38:01.577Z,13.65
2023-03-18T08:39:05.258Z,13.67
2023-03-18T08:40:09.807Z,14.09
2023-03-18T08:41:12.043Z,14.64
2023-03-18T08:42:14.362Z,14.51
2023-03-18T08:43:16.855Z,14.50
2023-03-18T08:44:19.032Z,14.39
2023-03-18T08:45:21.202Z,14.47
2023-03-18T08:46:23.760Z,14.59
2023-03-18T08:47:25.989Z,14.61
2023-03-18T08:48:28.361Z,14.88
2023-03-18T08:49:30.587Z,15.06
2023-03-18T08:50:34.476Z,15.50
2023-03-18T08:51:36.751Z,15.64
2023-03-18T08:52:39.722Z,15.86
2023-03-18T08:53:42.131Z,15.79
2023-03-18T08:54:44.471Z,15.82
2023-03-18T08:55:47.694Z,16.15
2023-03-18T08:56:50.130Z,16.26
2023-03-18T08:57:53.074Z,17.18
2023-03-18T08:58:55.379Z,18.08
2023-03-18T08:59:57.718Z,18.69
2023-03-18T09:01:00.208Z,19.20
2023-03-18T09:02:03.447Z,19.57
2023-03-18T09:03:06.191Z,19.82
2023-03-18T09:04:08.512Z,19.96
2023-03-18T09:05:10.719Z,19.90
2023-03-18T09:06:13.034Z,20.00
2023-03-18T09:07:17.941Z,19.64
2023-03-18T09:08:22.039Z,19.19
2023-03-18T09:09:31.059Z,19.71
2023-03-18T09:10:39.483Z,18.89
2023-03-18T09:11:41.764Z,19.16
2023-03-18T09:12:45.704Z,19.76
2023-03-18T09:13:47.947Z,19.89
2023-03-18T09:14:50.455Z,20.18
2023-03-18T09:15:53.209Z,20.27
2023-03-18T09:16:55.605Z,19.55
2023-03-18T09:18:10.779Z,19.56
2023-03-18T09:19:14.040Z,19.80
2023-03-18T09:20:17.449Z,20.09
2023-03-18T09:21:20.273Z,20.04
2023-03-18T09:22:22.783Z,19.30
2023-03-18T09:23:26.646Z,19.07
2023-03-18T09:24:28.916Z,19.53
2023-03-18T09:25:31.456Z,19.54
2023-03-18T09:26:33.934Z,19.96
2023-03-18T09:27:36.238Z,20.10
2023-03-18T09:28:38.569Z,20.14
2023-03-18T09:29:41.664Z,20.40
2023-03-18T09:30:44.528Z,20.48
2023-03-18T09:31:46.979Z,20.70
2023-03-18T09:32:49.631Z,20.59
2023-03-18T09:33:51.868Z,19.80
2023-03-18T09:34:54.493Z,19.66
2023-03-18T09:35:56.729Z,18.72
2023-03-18T09:36:59.124Z,18.78
2023-03-18T09:38:02.094Z,19.38
2023-03-18T09:39:04.491Z,19.70
2023-03-18T09:40:08.479Z,19.87
2023-03-18T09:41:10.663Z,20.14
2023-03-18T09:42:32.205Z,20.32
2023-03-18T09:43:54.004Z,20.64
2023-03-18T09:45:00.249Z,20.58
2023-03-18T09:46:14.806Z,20.65
2023-03-18T09:47:42.002Z,20.76
2023-03-18T09:49:02.367Z,20.81
2023-03-18T09:50:15.652Z,21.07
2023-03-18T09:51:42.126Z,20.85
2023-03-18T09:52:48.666Z,20.82
2023-03-18T09:53:51.310Z,20.87
2023-03-18T09:55:13.774Z,21.03
2023-03-18T09:56:22.807Z,20.86
2023-03-18T09:57:29.715Z,20.79
2023-03-18T09:58:31.891Z,20.33
2023-03-18T09:59:40.468Z,20.29
2023-03-18T10:00:44.316Z,20.27
2023-03-18T10:01:50.035Z,20.60
2023-03-18T10:02:59.031Z,19.74
2023-03-18T10:04:13.969Z,20.17
2023-03-18T10:05:46.003Z,19.62
2023-03-18T10:06:53.372Z,18.95
2023-03-18T10:08:02.560Z,19.75
2023-03-18T10:09:26.153Z,20.30
2023-03-18T10:10:42.171Z,20.66
2023-03-18T10:11:49.524Z,19.20
2023-03-18T10:13:05.247Z,18.90
2023-03-18T10:14:18.515Z,19.74
2023-03-18T10:15:33.109Z,19.69
2023-03-18T10:17:23.048Z,19.75
2023-03-18T10:18:32.040Z,19.23
2023-03-18T10:19:36.143Z,19.75
2023-03-18T10:21:11.320Z,19.98
2023-03-18T10:22:44.987Z,20.61
2023-03-18T10:23:54.416Z,21.04
2023-03-18T10:25:12.051Z,21.45
2023-03-18T10:26:24.698Z,20.16
2023-03-18T10:27:55.100Z,18.98
2023-03-18T10:29:29.754Z,19.13
2023-03-18T10:31:00.201Z,19.39
2023-03-18T10:32:23.340Z,18.75
2023-03-18T10:33:39.046Z,18.68
2023-03-18T10:35:08.499Z,19.66
2023-03-18T10:36:20.101Z,19.26
2023-03-18T10:37:46.544Z,18.51
2023-03-18T10:38:51.696Z,18.22
2023-03-18T10:39:54.620Z,19.04
2023-03-18T10:40:57.647Z,18.82
2023-03-18T10:42:10.788Z,18.41
2023-03-18T10:43:17.854Z,18.33
2023-03-18T10:44:37.347Z,18.49
2023-03-18T10:45:42.047Z,18.52
2023-03-18T10:46:47.428Z,18.44
2023-03-18T10:48:24.500Z,18.72
2023-03-18T10:49:35.560Z,18.53
2023-03-18T10:50:43.714Z,18.25
2023-03-18T10:51:53.598Z,18.73
2023-03-18T10:53:00.541Z,18.94
2023-03-18T10:54:32.460Z,19.44
2023-03-18T10:55:45.001Z,19.71
2023-03-18T10:56:47.328Z,20.04
2023-03-18T10:57:49.414Z,20.15
2023-03-18T10:58:56.313Z,20.07
2023-03-18T10:59:58.764Z,19.55
2023-03-18T11:01:01.189Z,19.15
2023-03-18T11:02:17.473Z,18.93
2023-03-18T11:04:03.248Z,18.93
2023-03-18T11:05:17.180Z,19.17
2023-03-18T11:06:25.267Z,19.92
2023-03-18T11:07:28.662Z,20.46
2023-03-18T11:08:39.654Z,19.56
2023-03-18T11:09:42.471Z,19.17
2023-03-18T11:10:46.289Z,18.77
2023-03-18T11:11:50.903Z,19.13
2023-03-18T11:13:02.633Z,19.80
2023-03-18T11:14:08.247Z,20.02
2023-03-18T11:15:12.759Z,19.55
2023-03-18T11:16:29.645Z,19.86
2023-03-18T11:17:35.423Z,19.25
2023-03-18T11:18:38.239Z,19.09
2023-03-18T11:19:48.811Z,19.08
2023-03-18T11:21:01.277Z,19.27
2023-03-18T11:22:10.550Z,18.83
2023-03-18T11:23:20.489Z,18.73
2023-03-18T11:24:36.347Z,19.44
2023-03-18T11:25:38.932Z,19.28
2023-03-18T11:26:47.684Z,19.66
2023-03-18T11:27:52.276Z,19.83
2023-03-18T11:28:56.950Z,19.60
2023-03-18T11:30:01.390Z,19.73
2023-03-18T11:31:05.774Z,19.93
2023-03-18T11:32:34.063Z,20.25
2023-03-18T11:33:37.280Z,20.52
2023-03-18T11:34:39.526Z,20.65
2023-03-18T11:36:08.461Z,20.25
2023-03-18T11:37:11.787Z,20.39
2023-03-18T11:38:19.638Z,20.64
2023-03-18T11:39:24.915Z,20.79
2023-03-18T11:40:29.651Z,20.85
2023-03-18T11:41:31.932Z,20.47
2023-03-18T11:42:34.263Z,20.68
2023-03-18T11:43:38.221Z,20.89
2023-03-18T11:44:40.551Z,21.04
2023-03-18T11:45:54.501Z,21.33
2023-03-18T11:47:15.669Z,21.19
2023-03-18T11:48:37.842Z,20.95
2023-03-18T11:49:40.235Z,21.09
2023-03-18T11:51:12.249Z,21.10
2023-03-18T11:52:38.985Z,21.24
2023-03-18T11:54:09.550Z,21.42
2023-03-18T11:55:21.964Z,21.22
2023-03-18T11:56:31.593Z,20.57
2023-03-18T11:57:57.714Z,20.18
2023-03-18T11:59:32.363Z,20.22
2023-03-18T12:00:39.887Z,20.11
2023-03-18T12:01:51.547Z,19.96
2023-03-18T12:03:25.039Z,19.81
2023-03-18T12:04:36.199Z,19.80
2023-03-18T12:05:52.042Z,19.76
2023-03-18T12:07:09.015Z,19.71
2023-03-18T12:08:20.611Z,19.57
2023-03-18T12:09:32.091Z,19.41
2023-03-18T12:10:51.642Z,19.55
2023-03-18T12:12:15.601Z,19.79
2023-03-18T12:13:55.450Z,19.63
2023-03-18T12:15:28.717Z,19.63
2023-03-18T12:16:51.795Z,19.80
2023-03-18T12:18:04.424Z,19.75
2023-03-18T12:19:24.433Z,19.75
2023-03-18T12:20:52.637Z,19.57
2023-03-18T12:22:04.508Z,19.06
2023-03-18T12:23:21.886Z,19.14
2023-03-18T12:24:46.054Z,19.28
2023-03-18T12:26:03.748Z,19.23
2023-03-18T12:27:55.140Z,19.05
2023-03-18T12:29:32.200Z,18.83
2023-03-18T12:31:00.793Z,18.52
2023-03-18T12:32:02.963Z,18.64
2023-03-18T12:33:32.458Z,18.39
2023-03-18T12:34:37.282Z,18.53
2023-03-18T12:35:52.475Z,18.27
2023-03-18T12:37:17.848Z,18.31
2023-03-18T12:38:45.089Z,18.57
2023-03-18T12:40:12.533Z,18.83
2023-03-18T12:41:21.469Z,18.96
2023-03-18T12:42:40.658Z,18.89
2023-03-18T12:44:12.591Z,19.08
2023-03-18T12:45:25.218Z,18.88
2023-03-18T12:46:33.481Z,18.79
2023-03-18T12:48:04.966Z,18.37
2023-03-18T12:49:10.206Z,18.62
2023-03-18T12:50:18.247Z,18.87
2023-03-18T12:51:29.240Z,18.69
2023-03-18T12:52:43.729Z,18.44
2023-03-18T12:53:50.431Z,18.55
2023-03-18T12:55:01.245Z,18.77
2023-03-18T12:56:11.553Z,18.44
2023-03-18T12:57:47.568Z,18.62
2023-03-18T12:59:15.287Z,18.94
2023-03-18T13:00:28.103Z,19.23
2023-03-18T13:01:47.515Z,19.60
2023-03-18T13:03:05.496Z,19.76
2023-03-18T13:04:18.242Z,19.71
2023-03-18T13:05:27.388Z,19.58
2023-03-18T13:07:04.741Z,19.64
2023-03-18T13:08:14.514Z,19.56
2023-03-18T13:09:41.309Z,19.62
2023-03-18T13:10:47.038Z,19.67
2023-03-18T13:12:01.906Z,19.31
2023-03-18T13:13:08.655Z,18.93
2023-03-18T13:14:56.452Z,19.30
2023-03-18T13:16:01.300Z,19.50
2023-03-18T13:17:04.995Z,19.35
2023-03-18T13:18:31.884Z,19.18
2023-03-18T13:19:35.586Z,19.41
2023-03-18T13:20:39.799Z,19.40
2023-03-18T13:21:51.695Z,19.22
2023-03-18T13:23:02.838Z,19.30
2023-03-18T13:24:24.408Z,19.45
2023-03-18T13:25:35.402Z,19.67
2023-03-18T13:27:28.336Z,19.13
2023-03-18T13:29:02.388Z,19.40
2023-03-18T13:30:28.745Z,19.37
2023-03-18T13:32:01.693Z,19.51
2023-03-18T13:33:34.563Z,19.63
2023-03-18T13:34:57.040Z,19.60
2023-03-18T13:36:22.396Z,19.66
2023-03-18T13:38:03.526Z,19.77
2023-03-18T13:39:05.713Z,19.96
2023-03-18T13:40:38.413Z,20.12
2023-03-18T13:41:52.786Z,20.52
2023-03-18T13:43:00.143Z,20.69
2023-03-18T13:44:11.523Z,20.93
2023-03-18T13:45:32.084Z,20.80
2023-03-18T13:46:35.209Z,20.65
2023-03-18T13:47:39.736Z,20.62
2023-03-18T13:48:41.977Z,20.42
2023-03-18T13:49:44.812Z,20.61
2023-03-18T13:50:50.332Z,20.48
2023-03-18T13:51:57.847Z,20.28
2023-03-18T13:53:01.818Z,20.30
2023-03-18T13:54:12.982Z,20.32
2023-03-18T13:55:33.265Z,20.23
2023-03-18T13:56:42.887Z,20.29
2023-03-18T13:57:48.471Z,20.44
2023-03-18T13:58:54.054Z,20.74
2023-03-18T14:00:28.823Z,20.50
2023-03-18T14:01:36.814Z,20.79
2023-03-18T14:02:47.614Z,20.94
2023-03-18T14:03:49.732Z,21.05
2023-03-18T14:04:53.144Z,21.05
2023-03-18T14:06:04.142Z,20.75
2023-03-18T14:07:21.088Z,21.06
2023-03-18T14:08:38.250Z,20.42
2023-03-18T14:09:47.448Z,20.54
2023-03-18T14:10:50.411Z,20.95
2023-03-18T14:11:52.952Z,20.82
2023-03-18T14:12:55.934Z,20.62
2023-03-18T14:14:04.032Z,20.46
2023-03-18T14:15:09.413Z,20.22
2023-03-18T14:16:14.862Z,20.24
2023-03-18T14:17:37.620Z,20.01
2023-03-18T14:18:40.139Z,20.05
2023-03-18T14:19:44.956Z,19.76
2023-03-18T14:20:53.446Z,19.61
2023-03-18T14:22:19.508Z,19.70
2023-03-18T14:23:24.822Z,19.77
2023-03-18T14:24:27.186Z,19.81
2023-03-18T14:25:34.772Z,19.67
2023-03-18T14:26:37.698Z,19.68
2023-03-18T14:27:55.192Z,19.43
2023-03-18T14:29:17.115Z,19.92
2023-03-18T14:30:34.814Z,19.72
2023-03-18T14:31:39.975Z,19.23
2023-03-18T14:32:43.173Z,19.39
2023-03-18T14:34:17.484Z,19.55
2023-03-18T14:35:29.523Z,19.72
2023-03-18T14:36:43.799Z,19.62
2023-03-18T14:38:06.479Z,19.76
2023-03-18T14:39:18.030Z,19.78
2023-03-18T14:40:21.241Z,19.83
2023-03-18T14:41:28.897Z,19.84
2023-03-18T14:42:36.158Z,19.65
2023-03-18T14:43:44.617Z,19.21
2023-03-18T14:44:52.635Z,19.40
2023-03-18T14:46:02.492Z,19.40
2023-03-18T14:47:15.894Z,19.51
2023-03-18T14:48:23.963Z,19.35
2023-03-18T14:49:35.921Z,19.17
2023-03-18T14:50:45.470Z,19.12
2023-03-18T14:51:55.471Z,19.31
2023-03-18T14:53:05.910Z,19.27
2023-03-18T14:54:20.802Z,18.95
2023-03-18T14:55:27.798Z,19.05
2023-03-18T14:56:36.329Z,19.21
2023-03-18T14:57:39.772Z,19.35
2023-03-18T14:58:46.358Z,18.82
2023-03-18T14:59:48.570Z,19.00
2023-03-18T15:00:54.114Z,19.06
2023-03-18T15:01:56.362Z,19.30
2023-03-18T15:03:03.727Z,19.38
2023-03-18T15:04:08.341Z,19.50
2023-03-18T15:05:17.888Z,19.48
2023-03-18T15:06:24.009Z,19.53
2023-03-18T15:07:44.427Z,19.62
2023-03-18T15:09:01.299Z,19.57
2023-03-18T15:10:17.139Z,19.53
2023-03-18T15:11:22.841Z,19.55
2023-03-18T15:12:27.374Z,19.45
2023-03-18T15:13:29.733Z,19.31
2023-03-18T15:14:34.232Z,19.21
2023-03-18T15:15:36.796Z,19.30
2023-03-18T15:16:39.351Z,19.34
2023-03-18T15:17:47.612Z,19.10
2023-03-18T15:18:55.117Z,19.10
2023-03-18T15:19:59.984Z,18.97
2023-03-18T15:21:08.860Z,19.06